Time;durP1;ratioP1;P1;durP2;ratioP2;P2;SDS_P1;SDS_P2;PMS_P1;PMS_P2;Temp;Humidity;BMP_temperature;BMP_pressure;BME280_temperature;BME280_humidity;BME280_pressure;Samples;Min_cycle;Max_cycle;Signal;HPM_P1;HPM_P2
2023/01/19 00:02:17;;;;;;;;;9.00;6.00;;;;;-146.37;100.00;59337.28;5080564;28;8800;-83
2023/01/19 00:04:43;;;;;;;;;7.33;7.33;;;;;-146.37;100.00;59337.28;5099452;28;8804;-83
2023/01/19 00:07:08;;;;;;;;;11.33;9.33;;;;;-146.37;100.00;59337.28;5099140;28;8796;-83
2023/01/19 00:09:37;;;;;;;;;9.00;9.00;;;;;-146.37;100.00;59337.28;5098231;28;8835;-83
2023/01/19 00:12:03;;;;;;;;;14.50;12.75;;;;;-146.37;100.00;59337.28;5097696;28;9578;-84
2023/01/19 00:14:29;;;;;;;;;10.00;10.00;;;;;-146.37;100.00;59337.28;5097482;28;8827;-83
2023/01/19 00:16:54;;;;;;;;;15.33;13.33;;;;;-146.37;100.00;59337.28;5116278;28;8809;-83
2023/01/19 00:19:19;;;;;;;;;13.00;11.00;;;;;-146.37;100.00;59337.28;5101386;28;8812;-83
2023/01/19 00:21:45;;;;;;;;;9.33;9.00;;;;;-146.37;100.00;59337.28;5102846;28;9586;-83
2023/01/19 00:24:12;;;;;;;;;11.33;9.00;;;;;-146.37;100.00;59337.28;5119527;28;8915;-83
2023/01/19 00:26:39;;;;;;;;;9.00;9.00;;;;;-146.37;100.00;59337.28;5100170;28;9570;-83
2023/01/19 00:29:06;;;;;;;;;9.00;8.50;;;;;-146.37;100.00;59337.28;5100035;28;8870;-83
2023/01/19 00:31:35;;;;;;;;;9.00;9.00;;;;;-146.37;100.00;59337.28;5096915;28;8863;-83
2023/01/19 00:34:03;;;;;;;;;7.50;6.00;;;;;-146.37;100.00;59337.28;5096898;28;8778;-83
2023/01/19 00:36:28;;;;;;;;;11.00;9.00;;;;;-146.37;100.00;59337.28;5098154;28;8735;-83
2023/01/19 00:38:53;;;;;;;;;9.00;7.33;;;;;-146.37;100.00;59337.28;5098712;28;8942;-84
2023/01/19 00:42:38;;;;;;;;;9.67;9.67;;;;;-146.37;100.00;59337.28;5097284;28;8895;-84
2023/01/19 00:44:04;;;;;;;;;8.50;8.50;;;;;-146.37;100.00;59337.28;5097720;28;9591;-83
2023/01/19 00:46:30;;;;;;;;;9.67;8.67;;;;;-146.37;100.00;59337.28;5095986;28;8812;-83
2023/01/19 00:48:55;;;;;;;;;8.67;8.00;;;;;-146.37;100.00;59337.28;5096203;28;9571;-83
2023/01/19 00:51:22;;;;;;;;;15.00;9.00;;;;;-146.37;100.00;59337.28;5096848;28;8856;-83
2023/01/19 00:53:47;;;;;;;;;9.25;9.25;;;;;-146.37;100.00;59337.28;5095397;28;8815;-83
2023/01/19 00:56:12;;;;;;;;;9.33;9.00;;;;;-146.37;100.00;59337.28;5097486;28;8786;-82
2023/01/19 00:58:38;;;;;;;;;11.67;10.00;;;;;-146.37;100.00;59337.28;5097485;28;8834;-83
2023/01/19 01:01:04;;;;;;;;;9.00;9.00;;;;;-146.37;100.00;59337.28;5097354;28;8811;-83
2023/01/19 01:03:30;;;;;;;;;15.25;11.00;;;;;-146.37;100.00;59337.28;5098537;28;8797;-83
2023/01/19 01:05:55;;;;;;;;;10.33;8.67;;;;;-146.37;100.00;59337.28;5096551;28;8801;-83
2023/01/19 01:08:21;;;;;;;;;12.67;10.67;;;;;-146.37;100.00;59337.28;5097991;28;8797;-83
2023/01/19 01:10:46;;;;;;;;;15.33;13.33;;;;;-146.37;100.00;59337.28;5096251;28;9595;-83
2023/01/19 01:13:12;;;;;;;;;13.00;13.00;;;;;-146.37;100.00;59337.28;5098003;28;8790;-83
2023/01/19 01:15:37;;;;;;;;;15.00;15.00;;;;;-146.37;100.00;59337.28;5097740;28;8882;-83
2023/01/19 01:18:02;;;;;;;;;11.00;10.33;;;;;-146.37;100.00;59337.28;5097250;28;8816;-83
2023/01/19 01:20:32;;;;;;;;;19.67;16.00;;;;;-146.37;100.00;59337.28;5097362;28;8922;-83
2023/01/19 01:22:57;;;;;;;;;9.50;9.00;;;;;-146.37;100.00;59337.28;5096884;28;8722;-83
2023/01/19 01:25:24;;;;;;;;;14.67;12.00;;;;;-146.37;100.00;59337.28;5096015;28;8817;-83
2023/01/19 01:27:51;;;;;;;;;11.25;11.25;;;;;-146.37;100.00;59337.28;5097022;28;8798;-83
2023/01/19 01:30:17;;;;;;;;;15.25;13.25;;;;;-146.37;100.00;59337.28;5097280;28;8790;-83
2023/01/19 01:32:42;;;;;;;;;16.75;15.25;;;;;-146.37;100.00;59337.28;5097657;28;8789;-83
2023/01/19 01:35:09;;;;;;;;;14.00;14.00;;;;;-146.37;100.00;59337.28;5095818;28;8819;-83
2023/01/19 01:37:36;;;;;;;;;6.00;6.00;;;;;-146.37;100.00;59337.28;5095682;28;8750;-83
2023/01/19 01:40:03;;;;;;;;;17.25;15.75;;;;;-146.37;100.00;59337.28;5094688;28;9665;-83
2023/01/19 01:42:30;;;;;;;;;14.00;14.00;;;;;-146.37;100.00;59337.28;5096405;28;8773;-83
2023/01/19 01:44:58;;;;;;;;;18.50;14.00;;;;;-146.37;100.00;59337.28;5097143;28;9498;-83
2023/01/19 01:47:37;;;;;;;;;16.33;14.00;;;;;-146.37;100.00;59337.28;5099866;28;8782;-83
2023/01/19 01:50:09;;;;;;;;;13.25;12.00;;;;;-146.37;100.00;59337.28;5089587;28;8797;-83
2023/01/19 01:52:59;;;;;;;;;11.50;11.50;;;;;-146.37;100.00;59337.28;5096813;28;8806;-83
2023/01/19 01:55:27;;;;;;;;;17.50;16.75;;;;;-146.37;100.00;59337.28;5095871;28;8799;-83
2023/01/19 01:57:57;;;;;;;;;9.25;9.25;;;;;-146.37;100.00;59337.28;5096445;28;8787;-83
2023/01/19 02:00:24;;;;;;;;;13.25;11.00;;;;;-146.37;100.00;59337.28;5078958;28;8822;-82
2023/01/19 02:02:50;;;;;;;;;13.75;9.25;;;;;-146.37;100.00;59337.28;5078840;28;8777;-82
2023/01/19 02:05:35;;;;;;;;;15.00;15.00;;;;;-146.37;100.00;59337.28;5082826;28;8783;-82
2023/01/19 02:13:54;;;;;;;;;12.50;11.75;;;;;-146.37;100.00;59337.28;5101691;28;8779;-82
2023/01/19 02:16:19;;;;;;;;;17.00;13.00;;;;;-146.37;100.00;59337.28;5082486;28;9587;-82
2023/01/19 02:18:45;;;;;;;;;16.00;13.67;;;;;-146.37;100.00;59337.28;5099486;28;8825;-82
2023/01/19 02:21:46;;;;;;;;;22.33;18.67;;;;;-146.37;100.00;59337.28;5100536;28;8843;-83
2023/01/19 02:24:11;;;;;;;;;17.75;13.75;;;;;-146.37;100.00;59337.28;5101747;28;8770;-85
2023/01/19 02:26:43;;;;;;;;;19.00;13.00;;;;;-146.37;100.00;59337.28;5100408;28;8853;-83
2023/01/19 02:29:15;;;;;;;;;10.50;9.50;;;;;-146.37;100.00;59337.28;5100009;28;8807;-82
2023/01/19 02:31:41;;;;;;;;;9.25;9.25;;;;;-146.37;100.00;59337.28;5116517;28;8783;-82
2023/01/19 02:34:09;;;;;;;;;18.67;12.67;;;;;-146.37;100.00;59337.28;5121227;28;8802;-82
2023/01/19 02:36:44;;;;;;;;;18.50;17.25;;;;;-146.37;100.00;59337.28;5118782;28;8755;-82
2023/01/19 02:39:11;;;;;;;;;15.50;13.75;;;;;-146.37;100.00;59337.28;5118951;28;9548;-82
2023/01/19 02:41:47;;;;;;;;;17.50;14.25;;;;;-146.37;100.00;59337.28;5101427;28;8882;-82
2023/01/19 02:44:15;;;;;;;;;21.75;15.50;;;;;-146.37;100.00;59337.28;5120443;28;9454;-82
2023/01/19 02:46:42;;;;;;;;;17.50;16.25;;;;;-146.37;100.00;59337.28;5120221;28;8767;-82
2023/01/19 02:49:07;;;;;;;;;15.00;13.00;;;;;-146.37;100.00;59337.28;5103027;28;9199;-82
2023/01/19 02:51:33;;;;;;;;;16.33;14.00;;;;;-146.37;100.00;59337.28;5100938;28;8798;-82
2023/01/19 02:54:06;;;;;;;;;19.25;16.00;;;;;-146.37;100.00;59337.28;5101755;28;9734;-82
2023/01/19 02:56:49;;;;;;;;;16.25;16.25;;;;;-146.37;100.00;59337.28;5120588;28;9599;-82
2023/01/19 02:59:48;;;;;;;;;16.00;16.00;;;;;-146.37;100.00;59337.28;5102350;28;8800;-82
2023/01/19 03:02:17;;;;;;;;;25.25;20.75;;;;;-146.37;100.00;59337.28;5103283;28;8786;-82
2023/01/19 03:05:18;;;;;;;;;20.25;18.25;;;;;-146.37;100.00;59337.28;5102239;28;8707;-83
2023/01/19 03:08:02;;;;;;;;;15.50;15.50;;;;;-146.37;100.00;59337.28;5102523;28;8783;-82
2023/01/19 03:10:44;;;;;;;;;22.25;20.00;;;;;-146.37;100.00;59337.28;5102104;28;8863;-82
2023/01/19 03:13:18;;;;;;;;;19.25;15.00;;;;;-146.37;100.00;59337.28;5101750;28;9662;-82
2023/01/19 03:15:47;;;;;;;;;17.50;17.50;;;;;-146.37;100.00;59337.28;5100106;28;8774;-82
2023/01/19 03:18:15;;;;;;;;;18.75;16.50;;;;;-146.37;100.00;59337.28;5102186;28;8765;-82
2023/01/19 03:20:43;;;;;;;;;13.50;13.50;;;;;-146.37;100.00;59337.28;5122103;28;8770;-82
2023/01/19 03:23:12;;;;;;;;;21.00;17.00;;;;;-146.37;100.00;59337.28;5103548;28;8793;-82
2023/01/19 03:25:42;;;;;;;;;19.75;14.25;;;;;-146.37;100.00;59337.28;5121682;28;8974;-82
2023/01/19 03:28:08;;;;;;;;;21.25;19.25;;;;;-146.37;100.00;59337.28;5102166;28;9355;-82
2023/01/19 03:30:45;;;;;;;;;20.25;16.50;;;;;-146.37;100.00;59337.28;5120560;28;8738;-84
2023/01/19 03:33:18;;;;;;;;;27.50;22.25;;;;;-146.37;100.00;59337.28;5104160;28;8798;-82
2023/01/19 03:35:49;;;;;;;;;23.50;19.75;;;;;-146.37;100.00;59337.28;5102755;28;8841;-83
2023/01/19 03:38:18;;;;;;;;;20.50;18.00;;;;;-146.37;100.00;59337.28;5102543;28;8794;-83
2023/01/19 03:40:46;;;;;;;;;19.25;17.00;;;;;-146.37;100.00;59337.28;5101356;28;8782;-84
2023/01/19 03:43:14;;;;;;;;;20.00;17.75;;;;;-146.37;100.00;59337.28;5101104;28;8790;-83
2023/01/19 03:45:41;;;;;;;;;12.25;12.25;;;;;-146.37;100.00;59337.28;5103356;28;8787;-83
2023/01/19 03:48:07;;;;;;;;;21.75;19.00;;;;;-146.37;100.00;59337.28;5080627;28;8789;-83
2023/01/19 03:50:33;;;;;;;;;16.00;16.00;;;;;-146.37;100.00;59337.28;5098977;28;8791;-83
2023/01/19 03:53:13;;;;;;;;;21.00;16.00;;;;;-146.37;100.00;59337.28;5079736;28;8818;-84
2023/01/19 03:55:42;;;;;;;;;21.00;19.25;;;;;-146.37;100.00;59337.28;5098283;28;8803;-83
2023/01/19 03:58:07;;;;;;;;;21.25;16.75;;;;;-146.37;100.00;59337.28;5098657;28;8791;-83
2023/01/19 04:00:39;;;;;;;;;18.67;17.00;;;;;-146.37;100.00;59337.28;5116599;28;8841;-83
2023/01/19 04:03:11;;;;;;;;;17.50;17.50;;;;;-146.37;100.00;59337.28;5120578;28;8832;-83
2023/01/19 04:05:38;;;;;;;;;20.00;18.50;;;;;-146.37;100.00;59337.28;5120050;28;8758;-83
2023/01/19 04:08:03;;;;;;;;;16.75;16.25;;;;;-146.37;100.00;59337.28;5101340;28;8737;-83
2023/01/19 04:10:29;;;;;;;;;22.00;17.67;;;;;-146.37;100.00;59337.28;5101700;28;8790;-83
2023/01/19 04:12:58;;;;;;;;;17.00;16.00;;;;;-146.37;100.00;59337.28;5120210;28;8798;-83
2023/01/19 04:15:24;;;;;;;;;15.25;13.25;;;;;-146.37;100.00;59337.28;5101059;28;8782;-83
2023/01/19 04:17:49;;;;;;;;;18.67;16.33;;;;;-146.37;100.00;59337.28;5101650;28;8794;-83
2023/01/19 04:20:15;;;;;;;;;16.67;13.33;;;;;-146.37;100.00;59337.28;5101760;28;8833;-83
2023/01/19 04:22:41;;;;;;;;;14.33;13.67;;;;;-146.37;100.00;59337.28;5101234;28;8801;-84
2023/01/19 04:25:07;;;;;;;;;13.33;13.33;;;;;-146.37;100.00;59337.28;5103316;28;8723;-82
2023/01/19 04:27:33;;;;;;;;;19.75;15.50;;;;;-146.37;100.00;59337.28;5122334;28;11324;-83
2023/01/19 04:29:59;;;;;;;;;14.00;14.00;;;;;-146.37;100.00;59337.28;5101798;28;8782;-84
2023/01/19 04:35:48;;;;;;;;;13.00;13.00;;;;;-146.37;100.00;59337.28;5122599;28;9603;-83
2023/01/19 04:38:15;;;;;;;;;19.25;18.00;;;;;-146.37;100.00;59337.28;5104618;28;8809;-84
2023/01/19 04:40:40;;;;;;;;;14.25;14.25;;;;;-146.37;100.00;59337.28;5120192;28;8763;-84
2023/01/19 04:43:06;;;;;;;;;17.00;16.67;;;;;-146.37;100.00;59337.28;5102183;28;8782;-84
2023/01/19 04:45:33;;;;;;;;;19.00;17.00;;;;;-146.37;100.00;59337.28;5101398;28;8821;-84
2023/01/19 04:47:59;;;;;;;;;21.00;18.75;;;;;-146.37;100.00;59337.28;5101366;28;8798;-84
2023/01/19 04:50:24;;;;;;;;;17.33;13.67;;;;;-146.37;100.00;59337.28;5120010;28;8838;-84
2023/01/19 04:52:50;;;;;;;;;20.00;18.33;;;;;-146.37;100.00;59337.28;5103168;28;8857;-84
2023/01/19 04:55:16;;;;;;;;;21.00;16.33;;;;;-146.37;100.00;59337.28;5120432;28;8814;-84
2023/01/19 04:57:42;;;;;;;;;18.33;18.33;;;;;-146.37;100.00;59337.28;5098726;28;8840;-84
2023/01/19 05:00:09;;;;;;;;;19.00;16.25;;;;;-146.37;100.00;59337.28;5118534;28;8778;-83
2023/01/19 05:02:34;;;;;;;;;21.00;20.00;;;;;-146.37;100.00;59337.28;5100105;28;8801;-84
2023/01/19 05:05:00;;;;;;;;;16.33;15.67;;;;;-146.37;100.00;59337.28;5100355;28;8854;-84
2023/01/19 05:07:25;;;;;;;;;20.67;20.67;;;;;-146.37;100.00;59337.28;5118988;28;8799;-84
2023/01/19 05:09:52;;;;;;;;;24.00;21.33;;;;;-146.37;100.00;59337.28;5117840;28;8790;-83
2023/01/19 05:12:18;;;;;;;;;21.00;19.25;;;;;-146.37;100.00;59337.28;5118773;28;8758;-84
2023/01/19 05:14:43;;;;;;;;;23.00;20.33;;;;;-146.37;100.00;59337.28;5118782;28;9572;-84
2023/01/19 05:17:10;;;;;;;;;26.00;17.33;;;;;-146.37;100.00;59337.28;5100371;28;8952;-84
2023/01/19 05:19:35;;;;;;;;;17.25;15.50;;;;;-146.37;100.00;59337.28;5099223;28;8794;-83
2023/01/19 05:22:02;;;;;;;;;14.33;14.00;;;;;-146.37;100.00;59337.28;5118550;28;8909;-83
2023/01/19 05:24:28;;;;;;;;;21.00;15.25;;;;;-146.37;100.00;59337.28;5101144;28;8726;-84
2023/01/19 05:26:53;;;;;;;;;16.00;14.67;;;;;-146.37;100.00;59337.28;5120058;28;8782;-83
2023/01/19 05:29:19;;;;;;;;;18.00;18.00;;;;;-146.37;100.00;59337.28;5101261;28;8830;-83
2023/01/19 05:31:50;;;;;;;;;15.00;12.67;;;;;-146.37;100.00;59337.28;5098800;28;8837;-84
2023/01/19 05:34:16;;;;;;;;;18.75;16.75;;;;;-146.37;100.00;59337.28;5099198;28;8805;-83
2023/01/19 05:36:42;;;;;;;;;20.33;15.00;;;;;-146.37;100.00;59337.28;5099785;28;8802;-84
2023/01/19 05:39:07;;;;;;;;;20.00;17.00;;;;;-146.37;100.00;59337.28;5101510;28;8896;-84
2023/01/19 05:41:33;;;;;;;;;15.67;15.67;;;;;-146.37;100.00;59337.28;5088431;28;8870;-83
2023/01/19 05:43:58;;;;;;;;;17.67;14.67;;;;;-146.37;100.00;59337.28;5081162;28;8767;-83
2023/01/19 05:46:24;;;;;;;;;16.33;15.00;;;;;-146.37;100.00;59337.28;5079695;28;8878;-84
2023/01/19 05:48:50;;;;;;;;;12.33;12.33;;;;;-146.37;100.00;59337.28;5062230;28;8820;-83
2023/01/19 05:51:15;;;;;;;;;19.00;18.67;;;;;-146.37;100.00;59337.28;5079620;28;9265;-83
2023/01/19 05:53:41;;;;;;;;;19.33;19.33;;;;;-146.37;100.00;59337.28;5062290;28;8821;-83
2023/01/19 05:56:08;;;;;;;;;17.33;13.33;;;;;-146.37;100.00;59337.28;5089228;28;8819;-83
2023/01/19 05:58:34;;;;;;;;;19.50;15.75;;;;;-146.37;100.00;59337.28;5082948;28;8743;-83
2023/01/19 06:01:04;;;;;;;;;16.75;12.75;;;;;-146.37;100.00;59337.28;5102807;28;8925;-83
2023/01/19 06:03:31;;;;;;;;;16.25;15.00;;;;;-146.37;100.00;59337.28;5083007;28;8791;-83
2023/01/19 06:05:57;;;;;;;;;17.25;15.75;;;;;-146.37;100.00;59337.28;5099160;28;8930;-83
2023/01/19 06:08:23;;;;;;;;;19.50;18.50;;;;;-146.37;100.00;59337.28;5102946;28;8813;-82
2023/01/19 06:10:48;;;;;;;;;18.00;16.00;;;;;-146.37;100.00;59337.28;5082974;28;8922;-83
2023/01/19 06:13:16;;;;;;;;;16.67;13.33;;;;;-146.37;100.00;59337.28;5081722;28;9513;-83
2023/01/19 06:15:43;;;;;;;;;7.25;1.50;;;;;-146.37;100.00;59337.28;5101651;28;8913;-83
2023/01/19 06:18:08;;;;;;;;;17.25;15.25;;;;;-146.37;100.00;59337.28;5100647;28;8751;-83
2023/01/19 06:20:35;;;;;;;;;15.00;13.33;;;;;-146.37;100.00;59337.28;5082677;28;8822;-83
2023/01/19 06:23:00;;;;;;;;;18.50;15.50;;;;;-146.37;100.00;59337.28;5102203;28;8732;-83
2023/01/19 06:25:27;;;;;;;;;14.67;14.67;;;;;-146.37;100.00;59337.28;5102186;28;8794;-83
2023/01/19 06:27:52;;;;;;;;;18.00;15.50;;;;;-146.37;100.00;59337.28;5101777;28;8809;-83
2023/01/19 06:30:18;;;;;;;;;16.33;14.33;;;;;-146.37;100.00;59337.28;5081018;28;8822;-82
2023/01/19 06:32:44;;;;;;;;;17.67;14.00;;;;;-146.37;100.00;59337.28;5100186;28;8794;-82
2023/01/19 06:35:11;;;;;;;;;15.67;12.67;;;;;-146.37;100.00;59337.28;5101698;28;8826;-83
2023/01/19 06:37:36;;;;;;;;;15.50;14.00;;;;;-146.37;100.00;59337.28;5102537;28;9702;-83
2023/01/19 06:40:02;;;;;;;;;12.67;12.00;;;;;-146.37;100.00;59337.28;5102156;28;8853;-83
2023/01/19 06:42:27;;;;;;;;;18.00;18.00;;;;;-146.37;100.00;59337.28;5103383;28;8868;-83
2023/01/19 06:44:52;;;;;;;;;13.33;13.33;;;;;-146.37;100.00;59337.28;5102593;28;8926;-83
2023/01/19 06:47:18;;;;;;;;;17.67;15.00;;;;;-146.37;100.00;59337.28;5085440;28;8795;-83
2023/01/19 06:49:43;;;;;;;;;12.33;12.33;;;;;-146.37;100.00;59337.28;5084083;28;8882;-83
2023/01/19 06:52:10;;;;;;;;;15.33;12.00;;;;;-146.37;100.00;59337.28;5102306;28;8799;-83
2023/01/19 06:54:36;;;;;;;;;21.25;17.75;;;;;-146.37;100.00;59337.28;5083151;28;8791;-83
2023/01/19 06:57:02;;;;;;;;;18.33;16.00;;;;;-146.37;100.00;59337.28;5102757;28;8890;-83
2023/01/19 06:59:27;;;;;;;;;18.25;17.25;;;;;-146.37;100.00;59337.28;5103469;28;8771;-83
2023/01/19 07:01:52;;;;;;;;;24.33;20.00;;;;;-146.37;100.00;59337.28;5104433;28;8829;-82
2023/01/19 07:04:18;;;;;;;;;13.67;13.67;;;;;-146.37;100.00;59337.28;5084139;28;8880;-85
2023/01/19 07:06:43;;;;;;;;;20.33;18.67;;;;;-146.37;100.00;59337.28;5084400;28;8826;-82
2023/01/19 07:09:09;;;;;;;;;23.00;19.00;;;;;-146.37;100.00;59337.28;5103241;28;8826;-82
2023/01/19 07:11:35;;;;;;;;;16.33;15.67;;;;;-146.37;100.00;59337.28;5084587;28;8829;-83
2023/01/19 07:14:00;;;;;;;;;15.50;13.75;;;;;-146.37;100.00;59337.28;5084101;28;8787;-83
2023/01/19 07:19:47;;;;;;;;;16.00;15.00;;;;;-146.37;100.00;59337.28;5101932;28;8755;-82
2023/01/19 07:22:13;;;;;;;;;15.33;15.33;;;;;-146.37;100.00;59337.28;5085106;28;8864;-82
2023/01/19 07:24:38;;;;;;;;;12.00;12.00;;;;;-146.37;100.00;59337.28;5085703;28;8803;-82
2023/01/19 07:27:04;;;;;;;;;17.33;15.33;;;;;-146.37;100.00;59337.28;5103003;28;8791;-82
2023/01/19 07:29:29;;;;;;;;;14.33;9.00;;;;;-146.37;100.00;59337.28;5084844;28;8825;-83
2023/01/19 07:31:55;;;;;;;;;18.33;16.67;;;;;-146.37;100.00;59337.28;5086884;28;8824;-85
2023/01/19 07:34:21;;;;;;;;;19.00;12.67;;;;;-146.37;100.00;59337.28;5105107;28;8828;-83
2023/01/19 07:36:46;;;;;;;;;21.67;19.33;;;;;-146.37;100.00;59337.28;5103009;28;8847;-83
2023/01/19 07:39:15;;;;;;;;;21.00;21.00;;;;;-146.37;100.00;59337.28;5101360;28;8833;-83
2023/01/19 07:41:40;;;;;;;;;22.67;20.67;;;;;-146.37;100.00;59337.28;5104486;28;8844;-85
2023/01/19 07:44:07;;;;;;;;;22.33;20.33;;;;;-146.37;100.00;59337.28;5107034;28;8976;-84
2023/01/19 07:46:33;;;;;;;;;23.00;21.50;;;;;-146.37;100.00;59337.28;5103484;28;8762;-83
2023/01/19 07:48:58;;;;;;;;;27.00;24.33;;;;;-146.37;100.00;59337.28;5101891;28;8837;-83
2023/01/19 07:51:24;;;;;;;;;23.67;21.33;;;;;-146.37;100.00;59337.28;5101810;28;8786;-82
2023/01/19 07:53:50;;;;;;;;;17.33;17.33;;;;;-146.37;100.00;59337.28;5103906;28;8785;-84
2023/01/19 07:56:20;;;;;;;;;19.25;16.50;;;;;-146.37;100.00;59337.28;5103371;28;8789;-84
2023/01/19 07:58:48;;;;;;;;;18.75;16.50;;;;;-146.37;100.00;59337.28;5100404;28;9669;-84
2023/01/19 08:01:14;;;;;;;;;13.00;12.00;;;;;-146.37;100.00;59337.28;5100123;28;8746;-84
2023/01/19 08:03:40;;;;;;;;;16.00;13.33;;;;;-146.37;100.00;59337.28;5100065;28;8814;-84
2023/01/19 08:06:06;;;;;;;;;19.67;16.00;;;;;-146.37;100.00;59337.28;5100644;28;8869;-83
2023/01/19 08:08:32;;;;;;;;;13.25;12.75;;;;;-146.37;100.00;59337.28;5096475;28;8798;-83
2023/01/19 08:10:58;;;;;;;;;14.25;14.25;;;;;-146.37;100.00;59337.28;5087093;28;8839;-84
2023/01/19 08:17:35;;;;;;;;;13.00;12.25;;;;;-146.37;100.00;59337.28;5088437;28;8709;-82
2023/01/19 08:20:00;;;;;;;;;12.50;11.75;;;;;-146.37;100.00;59337.28;5101627;28;8794;-83
2023/01/19 08:22:26;;;;;;;;;5.67;5.67;;;;;-146.37;100.00;59337.28;5105623;28;8900;-83
2023/01/19 08:24:53;;;;;;;;;10.33;8.33;;;;;-146.37;100.00;59337.28;5104337;28;8835;-84
2023/01/19 08:27:19;;;;;;;;;13.25;13.25;;;;;-146.37;100.00;59337.28;5104278;28;8766;-85
2023/01/19 08:29:44;;;;;;;;;13.67;10.33;;;;;-146.37;100.00;59337.28;5104739;28;8793;-84
2023/01/19 08:32:50;;;;;;;;;17.33;13.33;;;;;-146.37;100.00;59337.28;5104792;28;8833;-84
2023/01/19 08:35:16;;;;;;;;;14.50;12.25;;;;;-146.37;100.00;59337.28;5101574;28;8746;-84
2023/01/19 08:37:42;;;;;;;;;12.75;12.75;;;;;-146.37;100.00;59337.28;5122231;28;8802;-84
2023/01/19 08:43:29;;;;;;;;;11.25;11.25;;;;;-146.37;100.00;59337.28;5106704;28;8734;-83
2023/01/19 08:45:55;;;;;;;;;13.33;10.33;;;;;-146.37;100.00;59337.28;5119449;28;8878;-83
2023/01/19 08:48:22;;;;;;;;;11.67;11.67;;;;;-146.37;100.00;59337.28;5102754;28;8812;-84
2023/01/19 08:50:49;;;;;;;;;11.75;9.25;;;;;-146.37;100.00;59337.28;5101166;28;8795;-83
2023/01/19 08:53:15;;;;;;;;;12.00;11.25;;;;;-146.37;100.00;59337.28;5102968;28;8829;-85
2023/01/19 08:55:41;;;;;;;;;13.00;12.00;;;;;-146.37;100.00;59337.28;5104006;28;8795;-84
2023/01/19 08:58:07;;;;;;;;;11.00;11.00;;;;;-146.37;100.00;59337.28;5101977;28;11191;-82
2023/01/19 09:00:37;;;;;;;;;11.25;10.25;;;;;-146.37;100.00;59337.28;5088233;28;8813;-84
2023/01/19 09:03:05;;;;;;;;;12.25;10.50;;;;;-146.37;100.00;59337.28;5104255;28;9358;-83
2023/01/19 09:05:36;;;;;;;;;11.00;10.00;;;;;-146.37;100.00;59337.28;5100668;28;8826;-85
2023/01/19 09:08:02;;;;;;;;;11.00;11.00;;;;;-146.37;100.00;59337.28;5119968;28;8761;-84
2023/01/19 09:10:34;;;;;;;;;9.00;8.75;;;;;-146.37;100.00;59337.28;5103846;28;8738;-86
2023/01/19 09:13:04;;;;;;;;;9.50;9.25;;;;;-146.37;100.00;59337.28;5101514;28;8802;-85
2023/01/19 09:15:36;;;;;;;;;12.50;11.50;;;;;-146.37;100.00;59337.28;5101209;28;8750;-84
2023/01/19 09:18:23;;;;;;;;;12.50;12.00;;;;;-146.37;100.00;59337.28;5104419;28;8906;-85
2023/01/19 09:22:00;;;;;;;;;16.00;12.00;;;;;-146.37;100.00;59337.28;5104800;28;8742;-85
2023/01/19 09:24:20;;;;;;;;;12.75;11.00;;;;;-146.37;100.00;59337.28;5097741;28;8746;-85
2023/01/19 09:29:40;;;;;;;;;11.00;9.25;;;;;-146.37;100.00;59337.28;5103545;28;8802;-83
2023/01/19 09:32:05;;;;;;;;;12.00;12.00;;;;;-146.37;100.00;59337.28;5101982;28;8843;-83
2023/01/19 09:34:33;;;;;;;;;13.00;13.00;;;;;-146.37;100.00;59337.28;5100161;28;8746;-84
2023/01/19 09:36:59;;;;;;;;;12.75;10.00;;;;;-146.37;100.00;59337.28;5095429;28;8998;-84
2023/01/19 09:39:47;;;;;;;;;15.00;13.67;;;;;-146.37;100.00;59337.28;5103636;28;8819;-83
2023/01/19 09:43:22;;;;;;;;;19.75;14.50;;;;;-146.37;100.00;59337.28;5085330;28;8815;-86
2023/01/19 09:45:58;;;;;;;;;18.00;16.25;;;;;-146.37;100.00;59337.28;5067705;28;9763;-85
2023/01/19 09:48:30;;;;;;;;;14.75;14.75;;;;;-146.37;100.00;59337.28;5086058;28;9784;-83
2023/01/19 09:51:01;;;;;;;;;14.00;13.00;;;;;-146.37;100.00;59337.28;5106385;28;8779;-84
2023/01/19 09:54:05;;;;;;;;;12.00;12.00;;;;;-146.37;100.00;59337.28;5100608;28;8815;-82
2023/01/19 09:56:31;;;;;;;;;21.25;17.75;;;;;-146.37;100.00;59337.28;4957161;28;8810;-86
2023/01/19 09:58:59;;;;;;;;;17.50;16.25;;;;;-146.37;100.00;59337.28;4962550;28;8953;-85
2023/01/19 10:01:39;;;;;;;;;22.75;16.50;;;;;-146.37;100.00;59337.28;4964148;28;8798;-84
2023/01/19 10:04:24;;;;;;;;;20.25;20.25;;;;;-146.37;100.00;59337.28;4964162;28;8751;-85
2023/01/19 10:06:58;;;;;;;;;16.00;14.50;;;;;-146.37;100.00;59337.28;4971545;28;8762;-85
2023/01/19 10:09:35;;;;;;;;;23.50;20.25;;;;;-146.37;100.00;59337.28;4959700;28;8792;-86
2023/01/19 10:12:20;;;;;;;;;19.00;17.50;;;;;-146.37;100.00;59337.28;4965103;28;8814;-84
2023/01/19 10:14:56;;;;;;;;;19.25;17.25;;;;;-146.37;100.00;59337.28;4979458;28;8788;-85
2023/01/19 10:17:44;;;;;;;;;19.50;17.25;;;;;-146.37;100.00;59337.28;4979225;28;8800;-83
2023/01/19 10:20:16;;;;;;;;;16.25;16.25;;;;;-146.37;100.00;59337.28;4979005;28;8946;-85
2023/01/19 10:22:47;;;;;;;;;16.75;16.75;;;;;-146.37;100.00;59337.28;4969739;28;8824;-85
2023/01/19 10:25:18;;;;;;;;;17.75;13.00;;;;;-146.37;100.00;59337.28;4961605;28;8822;-84
2023/01/19 10:27:45;;;;;;;;;21.25;17.75;;;;;-146.37;100.00;59337.28;4981827;28;8743;-84
2023/01/19 10:30:27;;;;;;;;;18.75;18.75;;;;;-146.37;100.00;59337.28;4982099;28;8783;-83
2023/01/19 10:32:53;;;;;;;;;16.00;15.75;;;;;-146.37;100.00;59337.28;5013032;28;8800;-84
2023/01/19 10:35:23;;;;;;;;;18.67;16.67;;;;;-146.37;100.00;59337.28;5064669;28;8793;-85
2023/01/19 10:38:01;;;;;;;;;21.50;18.25;;;;;-146.37;100.00;59337.28;5068271;28;8793;-85
2023/01/19 10:40:34;;;;;;;;;22.75;15.25;;;;;-146.37;100.00;59337.28;5078830;28;9070;-86
2023/01/19 10:43:03;;;;;;;;;22.75;19.75;;;;;-146.37;100.00;59337.28;5070991;28;8807;-84
2023/01/19 10:45:34;;;;;;;;;21.75;21.00;;;;;-146.37;100.00;59337.28;5070453;28;8742;-86
2023/01/19 10:48:05;;;;;;;;;19.25;19.25;;;;;-146.37;100.00;59337.28;5095988;28;8819;-85
2023/01/19 10:50:34;;;;;;;;;21.50;20.75;;;;;-146.37;100.00;59337.28;5105759;28;8830;-86
2023/01/19 10:53:06;;;;;;;;;22.00;20.75;;;;;-146.37;100.00;59337.28;5103513;28;8713;-85
2023/01/19 10:55:38;;;;;;;;;22.50;19.50;;;;;-146.37;100.00;59337.28;5074655;28;8852;-86
2023/01/19 10:58:06;;;;;;;;;22.25;20.50;;;;;-146.37;100.00;59337.28;5069862;28;8823;-85
2023/01/19 11:00:47;;;;;;;;;23.75;21.50;;;;;-146.37;100.00;59337.28;5106129;28;8808;-84
2023/01/19 11:04:05;;;;;;;;;;;;;;;;;;;;;
2023/01/19 11:06:34;;;;;;;;;22.00;21.50;;;;;-146.37;100.00;59337.28;4975772;28;35550;-85
2023/01/19 11:09:18;;;;;;;;;23.50;22.50;;;;;-146.37;100.00;59337.28;4987227;28;8849;-84
2023/01/19 11:11:48;;;;;;;;;19.75;13.50;;;;;-146.37;100.00;59337.28;5005497;28;8825;-85
2023/01/19 11:14:28;;;;;;;;;21.25;17.75;;;;;-146.37;100.00;59337.28;5005744;28;8929;-85
2023/01/19 11:17:08;;;;;;;;;22.50;21.75;;;;;-146.37;100.00;59337.28;5021818;28;8828;-84
2023/01/19 11:23:17;;;;;;;;;23.25;21.75;;;;;-146.37;100.00;59337.28;5021191;28;8797;-85
2023/01/19 11:26:32;;;;;;;;;;;;;;;;;;;;;
2023/01/19 11:29:01;;;;;;;;;29.50;26.75;;;;;-146.37;100.00;59337.28;5000650;28;34749;-86
2023/01/19 11:31:26;;;;;;;;;26.50;26.50;;;;;-146.37;100.00;59337.28;5018749;28;8884;-87
2023/01/19 11:34:06;;;;;;;;;18.00;18.00;;;;;-146.37;100.00;59337.28;5015108;28;8835;-84
2023/01/19 11:36:35;;;;;;;;;22.75;20.25;;;;;-146.37;100.00;59337.28;5003402;28;8891;-85
2023/01/19 11:39:50;;;;;;;;;22.50;22.50;;;;;-146.37;100.00;59337.28;5007331;28;8795;-85
2023/01/19 11:42:33;;;;;;;;;17.00;17.00;;;;;-146.37;100.00;59337.28;5036889;28;8890;-85
2023/01/19 11:45:12;;;;;;;;;24.25;20.75;;;;;-146.37;100.00;59337.28;5026280;28;8728;-85
2023/01/19 11:47:44;;;;;;;;;20.00;19.00;;;;;-146.37;100.00;59337.28;5023511;28;9959;-85